createdAt,value
2016-05-16T00:00:16.318Z,17.6
2016-05-16T00:01:16.353Z,17.6
2016-05-16T00:02:16.387Z,17.55
2016-05-16T00:03:16.420Z,17.57
2016-05-16T00:04:16.454Z,17.52
2016-05-16T00:05:16.378Z,17.58
2016-05-16T00:06:16.538Z,17.49
2016-05-16T00:07:16.415Z,17.58
2016-05-16T00:08:16.606Z,17.6
2016-05-16T00:09:16.483Z,17.58
2016-05-16T00:10:16.673Z,17.54
2016-05-16T00:11:16.707Z,17.55
2016-05-16T00:12:16.600Z,17.5
2016-05-16T00:13:16.792Z,17.49
2016-05-16T00:14:16.825Z,17.54
2016-05-16T00:15:16.703Z,17.5
2016-05-16T00:16:16.893Z,17.47
2016-05-16T00:17:16.927Z,17.49
2016-05-16T00:18:16.976Z,17.47
2016-05-16T00:19:17.010Z,17.52
2016-05-16T00:20:17.216Z,17.54
2016-05-16T00:21:17.078Z,17.47
2016-05-16T00:22:17.127Z,17.49
2016-05-16T00:23:17.146Z,17.45
2016-05-16T00:24:17.180Z,17.45
2016-05-16T00:25:17.230Z,17.5
2016-05-16T00:26:17.107Z,17.45
2016-05-16T00:27:17.298Z,17.45
2016-05-16T00:28:17.347Z,17.47
2016-05-16T00:29:17.365Z,17.43
2016-05-16T00:30:17.415Z,17.45
2016-05-16T00:31:17.448Z,17.46
2016-05-16T00:32:17.483Z,17.49
2016-05-16T00:33:17.517Z,17.45
2016-05-16T00:34:17.551Z,17.46
2016-05-16T00:35:17.975Z,17.47
2016-05-16T00:36:17.634Z,17.42
2016-05-16T00:37:17.668Z,17.46
2016-05-16T00:38:17.702Z,17.5
2016-05-16T00:39:17.736Z,17.46
2016-05-16T00:40:17.770Z,17.43
2016-05-16T00:41:17.804Z,17.43
2016-05-16T00:42:17.697Z,17.43
2016-05-16T00:43:17.887Z,17.46
2016-05-16T00:44:17.764Z,17.39
2016-05-16T00:45:17.799Z,17.45
2016-05-16T00:46:17.989Z,17.47
2016-05-16T00:47:18.039Z,17.46
2016-05-16T00:48:18.057Z,17.4
2016-05-16T00:49:18.107Z,17.39
2016-05-16T00:50:17.985Z,17.45
2016-05-16T00:51:18.174Z,17.39
2016-05-16T00:52:18.208Z,17.45
2016-05-16T00:53:18.243Z,17.43
2016-05-16T00:54:18.277Z,17.43
2016-05-16T00:55:18.326Z,17.52
2016-05-16T00:56:18.204Z,17.5
2016-05-16T00:57:18.394Z,17.47
2016-05-16T00:58:18.428Z,17.49
2016-05-16T00:59:18.461Z,17.43
2016-05-16T01:00:18.354Z,17.4
2016-05-16T01:01:18.529Z,17.47
2016-05-16T01:02:18.579Z,17.47
2016-05-16T01:03:18.613Z,17.49
2016-05-16T01:04:18.490Z,17.47
2016-05-16T01:05:18.525Z,17.42
2016-05-16T01:06:18.730Z,17.39
2016-05-16T01:07:18.765Z,17.5
2016-05-16T01:08:18.798Z,17.4
2016-05-16T01:09:18.832Z,17.38
2016-05-16T01:10:18.882Z,17.43
2016-05-16T01:11:18.900Z,17.4
2016-05-16T01:12:18.778Z,17.47
2016-05-16T01:13:18.968Z,17.42
2016-05-16T01:14:19.018Z,17.45
2016-05-16T01:15:19.052Z,17.42
2016-05-16T01:16:19.085Z,17.46
2016-05-16T01:17:19.119Z,17.46
2016-05-16T01:18:19.153Z,17.45
2016-05-16T01:19:19.188Z,17.46
2016-05-16T01:20:19.237Z,17.45
2016-05-16T01:21:19.271Z,17.45
2016-05-16T01:22:19.304Z,17.4
2016-05-16T01:23:19.339Z,17.35
2016-05-16T01:24:19.373Z,17.38
2016-05-16T01:25:19.407Z,17.3
2016-05-16T01:26:19.456Z,17.39
2016-05-16T01:27:19.491Z,17.43
2016-05-16T01:28:19.523Z,17.46
2016-05-16T01:29:19.402Z,17.47
2016-05-16T01:30:19.592Z,17.43
2016-05-16T01:31:19.626Z,17.38
2016-05-16T01:32:19.660Z,17.38
2016-05-16T01:33:19.710Z,17.39
2016-05-16T01:34:19.743Z,17.38
2016-05-16T01:35:19.792Z,17.43
2016-05-16T01:36:19.811Z,17.43
2016-05-16T01:37:19.846Z,17.42
2016-05-16T01:38:19.895Z,17.43
2016-05-16T01:39:19.772Z,17.43
2016-05-16T01:40:19.963Z,17.38
2016-05-16T01:41:19.840Z,17.43
2016-05-16T01:42:20.030Z,17.35
2016-05-16T01:43:20.065Z,17.45
2016-05-16T01:44:20.098Z,17.45
2016-05-16T01:45:20.147Z,17.38
2016-05-16T01:46:20.182Z,17.4
2016-05-16T01:47:20.216Z,17.36
2016-05-16T01:48:20.265Z,17.32
2016-05-16T01:49:20.284Z,17.3
2016-05-16T01:50:20.317Z,17.32
2016-05-16T01:51:20.397Z,17.42
2016-05-16T01:52:20.473Z,17.38
2016-05-16T01:53:20.547Z,17.38
2016-05-16T01:54:20.620Z,17.42
2016-05-16T01:55:20.695Z,17.3
2016-05-16T01:56:20.750Z,17.42
2016-05-16T01:57:20.813Z,17.3
2016-05-16T01:58:20.863Z,17.36
2016-05-16T01:59:20.911Z,17.32
2016-05-16T02:00:20.975Z,17.38
2016-05-16T02:01:21.000Z,17.42
2016-05-16T02:02:21.056Z,17.31
2016-05-16T02:03:21.096Z,17.43
2016-05-16T02:04:21.119Z,17.3
2016-05-16T02:05:21.205Z,17.38
2016-05-16T02:06:21.226Z,17.32
2016-05-16T02:07:21.247Z,17.3
2016-05-16T02:08:21.126Z,17.35
2016-05-16T02:09:21.318Z,17.36
2016-05-16T02:10:21.214Z,17.36
2016-05-16T02:11:21.405Z,17.36
2016-05-16T02:12:21.439Z,17.38
2016-05-16T02:13:21.474Z,17.35
2016-05-16T02:14:21.509Z,17.28
2016-05-16T02:15:21.543Z,17.36
2016-05-16T02:16:21.593Z,17.28
2016-05-16T02:17:21.626Z,17.31
2016-05-16T02:18:21.646Z,17.32
2016-05-16T02:19:21.695Z,17.35
2016-05-16T02:20:21.619Z,17.38
2016-05-16T02:21:21.763Z,17.36
2016-05-16T02:22:21.812Z,17.36
2016-05-16T02:23:21.830Z,17.36
2016-05-16T02:24:21.881Z,17.28
2016-05-16T02:25:21.914Z,17.35
2016-05-16T02:26:21.948Z,17.36
2016-05-16T02:27:21.981Z,17.39
2016-05-16T02:28:22.016Z,17.35
2016-05-16T02:29:22.066Z,17.39
2016-05-16T02:30:22.100Z,17.38
2016-05-16T02:31:22.133Z,17.35
2016-05-16T02:32:22.167Z,17.31
2016-05-16T02:33:22.201Z,17.35
2016-05-16T02:34:22.236Z,17.35
2016-05-16T02:35:22.285Z,17.3
2016-05-16T02:36:22.319Z,17.31
2016-05-16T02:37:22.352Z,17.35
2016-05-16T02:38:22.386Z,17.24
2016-05-16T02:39:22.421Z,17.39
2016-05-16T02:40:22.455Z,17.24
2016-05-16T02:41:22.332Z,17.22
2016-05-16T02:42:22.537Z,17.21
2016-05-16T02:43:22.571Z,17.24
2016-05-16T02:44:22.606Z,17.22
2016-05-16T02:45:22.484Z,17.21
2016-05-16T02:46:22.673Z,17.24
2016-05-16T02:47:22.708Z,17.3
2016-05-16T02:48:22.742Z,17.27
2016-05-16T02:49:22.791Z,17.22
2016-05-16T02:50:22.825Z,17.2
2016-05-16T02:51:22.859Z,17.25
2016-05-16T02:52:22.892Z,17.2
2016-05-16T02:53:22.927Z,17.21
2016-05-16T02:54:22.961Z,17.22
2016-05-16T02:55:22.854Z,17.2
2016-05-16T02:56:23.044Z,17.22
2016-05-16T02:57:22.922Z,17.17
2016-05-16T02:58:23.112Z,17.22
2016-05-16T02:59:23.147Z,17.18
2016-05-16T03:00:23.039Z,17.25
2016-05-16T03:01:23.214Z,17.25
2016-05-16T03:02:23.248Z,17.3
2016-05-16T03:03:23.297Z,17.25
2016-05-16T03:04:23.331Z,17.3
2016-05-16T03:05:23.365Z,17.24
2016-05-16T03:06:23.243Z,17.18
2016-05-16T03:07:23.433Z,17.27
2016-05-16T03:08:23.467Z,17.25
2016-05-16T03:09:23.516Z,17.22
2016-05-16T03:10:23.551Z,17.24
2016-05-16T03:11:23.600Z,17.3
2016-05-16T03:12:23.635Z,17.27
2016-05-16T03:13:23.652Z,17.27
2016-05-16T03:14:23.687Z,17.2
2016-05-16T03:15:23.751Z,17.25
2016-05-16T03:16:23.770Z,17.21
2016-05-16T03:17:23.804Z,17.28
2016-05-16T03:18:23.838Z,17.27
2016-05-16T03:19:23.903Z,17.21
2016-05-16T03:20:24.187Z,17.25
2016-05-16T03:21:23.956Z,17.18
2016-05-16T03:22:23.833Z,17.28
2016-05-16T03:23:23.867Z,17.18
2016-05-16T03:24:24.057Z,17.28
2016-05-16T03:25:24.092Z,17.3
2016-05-16T03:26:24.125Z,17.22
2016-05-16T03:27:24.159Z,17.25
2016-05-16T03:28:24.192Z,17.22
2016-05-16T03:29:24.242Z,17.3
2016-05-16T03:30:24.276Z,17.24
2016-05-16T03:31:24.311Z,17.24
2016-05-16T03:32:24.344Z,17.28
2016-05-16T03:33:24.378Z,17.27
2016-05-16T03:34:24.412Z,17.2
2016-05-16T03:35:24.461Z,17.28
2016-05-16T03:36:24.496Z,17.27
2016-05-16T03:37:24.530Z,17.27
2016-05-16T03:38:24.563Z,17.25
2016-05-16T03:39:24.597Z,17.24
2016-05-16T03:40:24.475Z,17.21
2016-05-16T03:41:24.665Z,17.28
2016-05-16T03:42:24.715Z,17.27
2016-05-16T03:43:24.749Z,17.2
2016-05-16T03:44:24.783Z,17.27
2016-05-16T03:45:24.816Z,17.27
2016-05-16T03:46:24.851Z,17.21
2016-05-16T03:47:24.885Z,17.21
2016-05-16T03:48:24.918Z,17.2
2016-05-16T03:49:24.968Z,17.18
2016-05-16T03:50:25.002Z,17.15
2016-05-16T03:51:25.036Z,17.09
2016-05-16T03:52:25.070Z,17.17
2016-05-16T03:53:25.104Z,17.17
2016-05-16T03:54:25.153Z,17.15
2016-05-16T03:55:25.172Z,17.22
2016-05-16T03:56:25.206Z,17.18
2016-05-16T03:57:25.256Z,17.12
2016-05-16T03:58:25.289Z,17.12
2016-05-16T03:59:25.323Z,17.17
2016-05-16T04:00:25.356Z,17.15
2016-05-16T04:01:25.406Z,17.18
2016-05-16T04:02:25.425Z,17.13
2016-05-16T04:03:25.459Z,17.17
2016-05-16T04:04:25.352Z,17.17
2016-05-16T04:05:25.636Z,17.18
2016-05-16T04:06:25.577Z,17.2
2016-05-16T04:07:25.455Z,17.18
2016-05-16T04:08:25.644Z,17.12
2016-05-16T04:09:25.694Z,17.18
2016-05-16T04:10:25.571Z,17.12
2016-05-16T04:11:25.761Z,17.18
2016-05-16T04:12:25.796Z,17.22
2016-05-16T04:13:25.845Z,17.18
2016-05-16T04:14:25.863Z,17.22
2016-05-16T04:15:25.741Z,17.1
2016-05-16T04:16:25.947Z,17.18
2016-05-16T04:17:25.981Z,17.17
2016-05-16T04:18:26.015Z,17.15
2016-05-16T04:19:26.048Z,17.13
2016-05-16T04:20:26.082Z,17.15
2016-05-16T04:21:26.117Z,17.15
2016-05-16T04:22:26.151Z,17.18
2016-05-16T04:23:26.200Z,17.1
2016-05-16T04:24:26.234Z,17.17
2016-05-16T04:25:26.268Z,17.15
2016-05-16T04:26:26.301Z,17.12
2016-05-16T04:27:26.336Z,17.13
2016-05-16T04:28:26.214Z,17.18
2016-05-16T04:29:26.404Z,17.18
2016-05-16T04:30:26.453Z,17.18
2016-05-16T04:31:26.331Z,17.18
2016-05-16T04:32:26.521Z,17.12
2016-05-16T04:33:26.555Z,17.15
2016-05-16T04:34:26.433Z,17.15
2016-05-16T04:35:27.670Z,17.13
2016-05-16T04:36:26.672Z,17.17
2016-05-16T04:37:26.706Z,17.15
2016-05-16T04:38:26.741Z,17.15
2016-05-16T04:39:26.775Z,17.15
2016-05-16T04:40:27.183Z,17.2
2016-05-16T04:41:26.842Z,17.18
2016-05-16T04:42:26.736Z,17.2
2016-05-16T04:43:26.926Z,17.13
2016-05-16T04:44:26.960Z,17.21
2016-05-16T04:45:26.993Z,17.15
2016-05-16T04:46:27.027Z,17.13
2016-05-16T04:47:27.062Z,17.15
2016-05-16T04:48:27.111Z,17.17
2016-05-16T04:49:27.145Z,17.18
2016-05-16T04:50:27.429Z,17.15
2016-05-16T04:51:27.197Z,17.18
2016-05-16T04:52:27.247Z,17.1
2016-05-16T04:53:27.281Z,17.15
2016-05-16T04:54:27.159Z,17.13
2016-05-16T04:55:27.348Z,17.1
2016-05-16T04:56:27.382Z,17.09
2016-05-16T04:57:27.417Z,17.18
2016-05-16T04:58:27.466Z,17.2
2016-05-16T04:59:27.500Z,17.24
2016-05-16T05:00:27.378Z,17.24
2016-05-16T05:01:27.568Z,17.2
2016-05-16T05:02:27.617Z,17.25
2016-05-16T05:03:27.636Z,17.24
2016-05-16T05:04:27.685Z,17.15
2016-05-16T05:05:27.563Z,17.17
2016-05-16T05:06:27.753Z,17.21
2016-05-16T05:07:27.787Z,17.25
2016-05-16T05:08:27.821Z,17.21
2016-05-16T05:09:27.871Z,17.1
2016-05-16T05:10:27.905Z,17.25
2016-05-16T05:11:27.782Z,17.2
2016-05-16T05:12:27.972Z,17.21
2016-05-16T05:13:28.007Z,17.17
2016-05-16T05:14:28.041Z,17.24
2016-05-16T05:15:28.075Z,17.25
2016-05-16T05:16:28.124Z,17.24
2016-05-16T05:17:28.142Z,17.3
2016-05-16T05:18:28.176Z,17.27
2016-05-16T05:19:28.226Z,17.17
2016-05-16T05:20:28.260Z,17.21
2016-05-16T05:21:28.293Z,17.22
2016-05-16T05:22:28.343Z,17.18
2016-05-16T05:23:28.361Z,17.27
2016-05-16T05:24:28.412Z,17.27
2016-05-16T05:25:28.429Z,17.3
2016-05-16T05:26:28.479Z,17.18
2016-05-16T05:27:28.512Z,17.2
2016-05-16T05:28:28.547Z,17.3
2016-05-16T05:29:28.581Z,17.28
2016-05-16T05:30:28.614Z,17.24
2016-05-16T05:31:28.664Z,17.3
2016-05-16T05:32:28.698Z,17.24
2016-05-16T05:33:28.732Z,17.25
2016-05-16T05:34:28.767Z,17.25
2016-05-16T05:35:28.800Z,17.17
2016-05-16T05:36:28.849Z,17.25
2016-05-16T05:37:28.884Z,17.22
2016-05-16T05:38:28.917Z,17.27
2016-05-16T05:39:28.952Z,17.22
2016-05-16T05:40:28.985Z,17.24
2016-05-16T05:41:28.863Z,17.22
2016-05-16T05:42:29.052Z,17.22
2016-05-16T05:43:28.947Z,17.22
2016-05-16T05:44:29.136Z,17.24
2016-05-16T05:45:29.171Z,17.24
2016-05-16T05:46:29.204Z,17.24
2016-05-16T05:47:29.239Z,17.32
2016-05-16T05:48:29.271Z,17.24
2016-05-16T05:49:29.307Z,17.31
2016-05-16T05:50:29.356Z,17.21
2016-05-16T05:51:29.390Z,17.25
2016-05-16T05:52:29.423Z,17.22
2016-05-16T05:53:29.443Z,17.22
2016-05-16T05:54:29.523Z,17.21
2016-05-16T05:55:29.526Z,17.22
2016-05-16T05:56:29.560Z,17.21
2016-05-16T05:57:29.593Z,17.25
2016-05-16T05:58:29.643Z,17.28
2016-05-16T05:59:29.676Z,17.27
2016-05-16T06:00:29.711Z,17.31
2016-05-16T06:01:29.745Z,17.31
2016-05-16T06:02:29.779Z,17.31
2016-05-16T06:03:29.812Z,17.22
2016-05-16T06:04:29.847Z,17.21
2016-05-16T06:05:29.897Z,17.32
2016-05-16T06:06:29.930Z,17.24
2016-05-16T06:07:29.964Z,17.35
2016-05-16T06:08:29.998Z,17.3
2016-05-16T06:09:30.032Z,17.35
2016-05-16T06:10:29.925Z,17.35
2016-05-16T06:11:30.115Z,17.27
2016-05-16T06:12:30.150Z,17.36
2016-05-16T06:13:30.183Z,17.32
2016-05-16T06:14:30.217Z,17.31
2016-05-16T06:15:30.251Z,17.35
2016-05-16T06:16:30.301Z,17.3
2016-05-16T06:17:30.334Z,17.36
2016-05-16T06:18:30.368Z,17.38
2016-05-16T06:19:30.403Z,17.27
2016-05-16T06:20:30.437Z,17.32
2016-05-16T06:21:30.471Z,17.3
2016-05-16T06:22:30.348Z,17.36
2016-05-16T06:23:30.554Z,17.31
2016-05-16T06:24:30.573Z,17.3
2016-05-16T06:25:30.621Z,17.38
2016-05-16T06:26:30.656Z,17.36
2016-05-16T06:27:30.690Z,17.32
2016-05-16T06:28:30.723Z,17.36
2016-05-16T06:29:30.773Z,17.39
2016-05-16T06:30:30.807Z,17.36
2016-05-16T06:31:30.841Z,17.32
2016-05-16T06:32:30.876Z,17.36
2016-05-16T06:33:30.908Z,17.32
2016-05-16T06:34:30.943Z,17.4
2016-05-16T06:35:31.149Z,17.43
2016-05-16T06:36:30.870Z,17.43
2016-05-16T06:37:31.061Z,17.39
2016-05-16T06:38:31.094Z,17.3
2016-05-16T06:39:31.128Z,17.43
2016-05-16T06:40:31.162Z,17.35
2016-05-16T06:41:31.197Z,17.46
2016-05-16T06:42:31.230Z,17.4
2016-05-16T06:43:31.280Z,17.39
2016-05-16T06:44:31.313Z,17.4
2016-05-16T06:45:31.347Z,17.47
2016-05-16T06:46:31.382Z,17.39
2016-05-16T06:47:31.416Z,17.42
2016-05-16T06:48:31.450Z,17.39
2016-05-16T06:49:31.499Z,17.43
2016-05-16T06:50:31.377Z,17.45
2016-05-16T06:51:31.567Z,17.46
2016-05-16T06:52:31.601Z,17.46
2016-05-16T06:53:31.635Z,17.43
2016-05-16T06:54:31.668Z,17.49
2016-05-16T06:55:31.702Z,17.49
2016-05-16T06:56:31.752Z,17.49
2016-05-16T06:57:31.787Z,17.42
2016-05-16T06:58:31.820Z,17.45
2016-05-16T06:59:31.979Z,17.46
2016-05-16T07:00:31.887Z,17.43
2016-05-16T07:01:31.922Z,17.47
2016-05-16T07:02:32.018Z,17.42
2016-05-16T07:03:32.005Z,17.38
2016-05-16T07:04:32.040Z,17.47
2016-05-16T07:05:32.339Z,17.43
2016-05-16T07:06:31.950Z,17.46
2016-05-16T07:07:32.142Z,17.49
2016-05-16T07:08:32.191Z,17.4
2016-05-16T07:09:32.225Z,17.35
2016-05-16T07:10:32.258Z,17.42
2016-05-16T07:11:32.308Z,17.49
2016-05-16T07:12:32.686Z,17.43
2016-05-16T07:13:32.361Z,17.43
2016-05-16T07:14:32.410Z,17.5
2016-05-16T07:15:32.444Z,17.54
2016-05-16T07:16:32.478Z,17.52
2016-05-16T07:17:33.418Z,17.55
2016-05-16T07:18:32.546Z,17.57
2016-05-16T07:19:32.595Z,17.6
2016-05-16T07:20:32.629Z,17.57
2016-05-16T07:21:32.663Z,17.55
2016-05-16T07:22:32.697Z,17.6
2016-05-16T07:23:32.732Z,17.57
2016-05-16T07:24:32.765Z,17.73
2016-05-16T07:25:32.643Z,17.57
2016-05-16T07:26:32.848Z,17.69
2016-05-16T07:27:32.882Z,17.65
2016-05-16T07:28:32.916Z,17.65
2016-05-16T07:29:32.950Z,17.79
2016-05-16T07:30:32.985Z,17.74
2016-05-16T07:31:33.034Z,17.71
2016-05-16T07:32:33.067Z,17.65
2016-05-16T07:33:32.945Z,17.66
2016-05-16T07:34:33.136Z,17.71
2016-05-16T07:35:33.482Z,17.57
2016-05-16T07:36:33.203Z,17.38
2016-05-16T07:37:33.253Z,17.13
2016-05-16T07:38:33.287Z,16.92
2016-05-16T07:39:33.321Z,16.8
2016-05-16T07:40:33.356Z,16.63
2016-05-16T07:41:33.388Z,16.45
2016-05-16T07:42:33.423Z,16.37
2016-05-16T07:43:33.472Z,16.16
2016-05-16T07:44:33.506Z,16.14
2016-05-16T07:45:33.540Z,15.96
2016-05-16T07:46:33.574Z,15.92
2016-05-16T07:47:33.607Z,15.71
2016-05-16T07:48:33.641Z,15.75
2016-05-16T07:49:33.677Z,15.7
2016-05-16T07:50:33.710Z,15.68
2016-05-16T07:51:33.744Z,15.8
2016-05-16T07:52:33.793Z,15.89
2016-05-16T07:53:33.827Z,15.91
2016-05-16T07:54:33.861Z,16.11
2016-05-16T07:55:33.895Z,16.16
2016-05-16T07:56:33.945Z,16.25
2016-05-16T07:57:33.962Z,16.29
2016-05-16T07:58:33.857Z,16.37
2016-05-16T07:59:34.032Z,16.45
2016-05-16T08:00:34.081Z,16.54
2016-05-16T08:01:34.115Z,16.66
2016-05-16T08:02:34.148Z,16.73
2016-05-16T08:03:34.026Z,16.81
2016-05-16T08:04:34.216Z,16.91
2016-05-16T08:05:34.265Z,16.92
2016-05-16T08:06:34.284Z,17.02
2016-05-16T08:07:34.334Z,17.02
2016-05-16T08:08:34.352Z,17.06
2016-05-16T08:09:34.245Z,17.12
2016-05-16T08:10:34.436Z,17.17
2016-05-16T08:11:34.469Z,17.25
2016-05-16T08:12:34.503Z,17.22
2016-05-16T08:13:34.396Z,17.36
2016-05-16T08:14:34.572Z,17.32
2016-05-16T08:15:34.622Z,17.36
2016-05-16T08:16:34.655Z,17.36
2016-05-16T08:17:34.705Z,17.43
2016-05-16T08:18:34.722Z,17.38
2016-05-16T08:19:35.866Z,17.4
2016-05-16T08:20:34.885Z,17.47
2016-05-16T08:21:38.074Z,17.39
2016-05-16T08:22:34.874Z,17.49
2016-05-16T08:23:35.236Z,17.49
2016-05-16T08:24:34.802Z,17.5
2016-05-16T08:25:34.976Z,17.5
2016-05-16T08:26:35.010Z,17.49
2016-05-16T08:27:35.340Z,17.49
2016-05-16T08:28:35.093Z,17.55
2016-05-16T08:29:35.173Z,17.54
2016-05-16T08:30:35.161Z,17.6
2016-05-16T08:31:35.196Z,17.57
2016-05-16T08:32:35.229Z,17.55
2016-05-16T08:33:35.107Z,17.6
2016-05-16T08:34:35.312Z,17.63
2016-05-16T08:35:35.346Z,17.58
2016-05-16T08:36:35.381Z,17.58
2016-05-16T08:37:35.414Z,17.66
2016-05-16T08:38:35.604Z,17.6
2016-05-16T08:39:35.482Z,17.74
2016-05-16T08:40:35.531Z,17.76
2016-05-16T08:41:35.566Z,17.74
2016-05-16T08:42:35.600Z,17.74
2016-05-16T08:43:35.633Z,17.73
2016-05-16T08:44:35.668Z,17.68
2016-05-16T08:45:35.701Z,17.74
2016-05-16T08:46:35.735Z,17.74
2016-05-16T08:47:35.786Z,17.68
2016-05-16T08:48:35.819Z,17.71
2016-05-16T08:49:35.853Z,17.74
2016-05-16T08:50:36.027Z,17.65
2016-05-16T08:51:35.921Z,17.74
2016-05-16T08:52:35.955Z,17.76
2016-05-16T08:53:36.004Z,17.69
2016-05-16T08:54:36.038Z,17.77
2016-05-16T08:55:36.072Z,17.76
2016-05-16T08:56:36.107Z,17.71
2016-05-16T08:57:36.155Z,17.73
2016-05-16T08:58:36.190Z,17.65
2016-05-16T08:59:36.223Z,17.81
2016-05-16T09:00:36.257Z,17.79
2016-05-16T09:01:36.290Z,17.81
2016-05-16T09:02:36.168Z,17.88
2016-05-16T09:03:36.376Z,17.88
2016-05-16T09:04:36.393Z,17.87
2016-05-16T09:05:36.302Z,17.86
2016-05-16T09:06:36.476Z,17.87
2016-05-16T09:07:36.511Z,17.9
2016-05-16T09:08:36.545Z,17.98
2016-05-16T09:09:36.578Z,18.01
2016-05-16T09:10:36.612Z,17.94
2016-05-16T09:11:36.662Z,18.02
2016-05-16T09:12:36.696Z,17.98
2016-05-16T09:13:36.730Z,17.94
2016-05-16T09:14:36.764Z,17.9
2016-05-16T09:15:36.657Z,18.08
2016-05-16T09:16:36.847Z,18.02
2016-05-16T09:17:36.880Z,18.05
2016-05-16T09:18:36.915Z,17.94
2016-05-16T09:19:36.950Z,18.08
2016-05-16T09:20:36.999Z,17.92
2016-05-16T09:21:37.033Z,18.01
2016-05-16T09:22:36.910Z,18.06
2016-05-16T09:23:37.100Z,18.05
2016-05-16T09:24:37.135Z,18.02
2016-05-16T09:25:37.169Z,18.01
2016-05-16T09:26:37.202Z,18.06
2016-05-16T09:27:37.252Z,18.05
2016-05-16T09:28:37.286Z,18.03
2016-05-16T09:29:37.320Z,18.03
2016-05-16T09:30:37.354Z,18.06
2016-05-16T09:31:37.231Z,18.06
2016-05-16T09:32:37.437Z,18.06
2016-05-16T09:33:37.471Z,18.03
2016-05-16T09:34:37.505Z,18.02
2016-05-16T09:35:37.508Z,18.1
2016-05-16T09:36:37.573Z,18.1
2016-05-16T09:37:37.607Z,18.14
2016-05-16T09:38:37.640Z,18.13
2016-05-16T09:39:37.690Z,18.16
2016-05-16T09:40:37.725Z,18.11
2016-05-16T09:41:37.758Z,18.14
2016-05-16T09:42:37.651Z,18.17
2016-05-16T09:43:37.826Z,18.14
2016-05-16T09:44:37.876Z,18.13
2016-05-16T09:45:37.753Z,18.19
2016-05-16T09:46:37.944Z,18.24
2016-05-16T09:47:37.977Z,18.21
2016-05-16T09:48:38.011Z,18.17
2016-05-16T09:49:38.045Z,18.2
2016-05-16T09:50:38.094Z,18.2
2016-05-16T09:51:38.130Z,18.19
2016-05-16T09:52:38.163Z,18.17
2016-05-16T09:53:38.213Z,18.2
2016-05-16T09:54:38.230Z,18.23
2016-05-16T09:55:38.280Z,18.19
2016-05-16T09:56:38.158Z,18.27
2016-05-16T09:57:38.349Z,18.36
2016-05-16T09:58:38.383Z,18.29
2016-05-16T09:59:38.416Z,18.26
2016-05-16T10:00:38.466Z,18.32
2016-05-16T10:01:38.499Z,18.29
2016-05-16T10:02:38.534Z,18.23
2016-05-16T10:03:38.567Z,18.31
2016-05-16T10:04:38.601Z,18.19
2016-05-16T10:05:39.151Z,18.26
2016-05-16T10:06:38.701Z,18.19
2016-05-16T10:07:38.719Z,18.19
2016-05-16T10:08:38.753Z,18.23
2016-05-16T10:09:38.787Z,18.26
2016-05-16T10:10:38.867Z,18.21
2016-05-16T10:11:38.870Z,18.32
2016-05-16T10:12:38.904Z,18.27
2016-05-16T10:13:39.407Z,18.26
2016-05-16T10:14:40.332Z,18.21
2016-05-16T10:15:39.147Z,18.34
2016-05-16T10:16:39.040Z,18.24
2016-05-16T10:17:45.417Z,18.29
2016-05-16T10:18:39.123Z,18.29
2016-05-16T10:19:39.157Z,18.27
2016-05-16T10:20:39.208Z,18.26
2016-05-16T10:21:39.241Z,18.2
2016-05-16T10:22:39.275Z,18.23
2016-05-16T10:23:39.309Z,18.21
2016-05-16T10:24:39.343Z,18.23
2016-05-16T10:25:39.377Z,18.27
2016-05-16T10:26:39.426Z,18.21
2016-05-16T10:27:39.460Z,18.21
2016-05-16T10:28:39.494Z,18.32
2016-05-16T10:29:39.528Z,18.34
2016-05-16T10:30:39.563Z,18.24
2016-05-16T10:31:39.596Z,18.38
2016-05-16T10:32:39.646Z,18.27
2016-05-16T10:33:39.679Z,18.26
2016-05-16T10:34:39.713Z,18.27
2016-05-16T10:35:39.747Z,18.27
2016-05-16T10:36:39.782Z,18.38
2016-05-16T10:37:39.831Z,18.42
2016-05-16T10:38:39.864Z,18.36
2016-05-16T10:39:39.899Z,18.44
2016-05-16T10:40:39.933Z,18.45
2016-05-16T10:41:39.967Z,18.42
2016-05-16T10:42:40.001Z,18.45
2016-05-16T10:43:40.065Z,18.44
2016-05-16T10:44:40.084Z,18.41
2016-05-16T10:45:40.117Z,18.44
2016-05-16T10:46:40.152Z,18.5
2016-05-16T10:47:40.186Z,18.47
2016-05-16T10:48:40.236Z,18.44
2016-05-16T10:49:40.269Z,18.61
2016-05-16T10:50:40.147Z,18.51
2016-05-16T10:51:40.336Z,18.56
2016-05-16T10:52:40.387Z,18.56
2016-05-16T10:53:40.421Z,18.54
2016-05-16T10:54:40.455Z,18.61
2016-05-16T10:55:40.489Z,18.6
2016-05-16T10:56:40.522Z,18.54
2016-05-16T10:57:40.612Z,18.57
2016-05-16T10:58:40.693Z,18.54
2016-05-16T10:59:40.774Z,18.54
2016-05-16T11:00:40.855Z,18.65
2016-05-16T11:01:40.935Z,18.6
2016-05-16T11:02:41.006Z,18.6
2016-05-16T11:03:40.901Z,18.66
2016-05-16T11:04:41.123Z,18.69
2016-05-16T11:05:41.159Z,18.65
2016-05-16T11:06:41.210Z,18.65
2016-05-16T11:07:41.250Z,18.66
2016-05-16T11:08:41.306Z,18.65
2016-05-16T11:09:41.345Z,18.65
2016-05-16T11:10:41.386Z,18.61
2016-05-16T11:11:41.442Z,18.71
2016-05-16T11:12:41.478Z,18.66
2016-05-16T11:13:41.513Z,18.69
2016-05-16T11:14:41.550Z,18.69
2016-05-16T11:15:41.586Z,18.72
2016-05-16T11:16:41.638Z,18.66
2016-05-16T11:17:41.673Z,18.68
2016-05-16T11:18:41.707Z,18.81
2016-05-16T11:19:41.743Z,18.79
2016-05-16T11:20:42.167Z,18.76
2016-05-16T11:21:41.671Z,18.84
2016-05-16T11:22:41.863Z,18.84
2016-05-16T11:23:41.911Z,18.86
2016-05-16T11:24:41.947Z,18.78
2016-05-16T11:25:41.980Z,18.87
2016-05-16T11:26:42.014Z,18.89
2016-05-16T11:27:42.048Z,18.89
2016-05-16T11:28:42.083Z,18.87
2016-05-16T11:29:42.116Z,18.87
2016-05-16T11:30:42.167Z,18.87
2016-05-16T11:31:42.200Z,18.89
2016-05-16T11:32:42.234Z,18.9
2016-05-16T11:33:42.269Z,18.89
2016-05-16T11:34:42.317Z,18.87
2016-05-16T11:35:42.352Z,18.81
2016-05-16T11:36:42.385Z,18.89
2016-05-16T11:37:42.419Z,18.84
2016-05-16T11:38:42.297Z,18.9
2016-05-16T11:39:42.488Z,18.87
2016-05-16T11:40:42.380Z,18.86
2016-05-16T11:41:42.571Z,18.91
2016-05-16T11:42:42.604Z,18.84
2016-05-16T11:43:42.638Z,18.86
2016-05-16T11:44:42.673Z,18.87
2016-05-16T11:45:42.721Z,18.96
2016-05-16T11:46:42.757Z,18.99
2016-05-16T11:47:42.790Z,18.91
2016-05-16T11:48:42.840Z,19
2016-05-16T11:49:42.874Z,19.05
2016-05-16T11:50:43.142Z,19.05
2016-05-16T11:51:42.957Z,19
2016-05-16T11:52:42.975Z,19.02
2016-05-16T11:53:43.009Z,19
2016-05-16T11:54:43.059Z,18.97
2016-05-16T11:55:42.937Z,19
2016-05-16T11:56:43.126Z,19.06
2016-05-16T11:57:43.176Z,18.97
2016-05-16T11:58:43.194Z,19.02
2016-05-16T11:59:43.245Z,19
2016-05-16T12:00:43.278Z,19
2016-05-16T12:01:43.312Z,18.94
2016-05-16T12:02:43.362Z,18.91
2016-05-16T12:03:43.395Z,18.97
2016-05-16T12:04:43.430Z,19
2016-05-16T12:05:43.479Z,18.99
2016-05-16T12:06:43.513Z,19
2016-05-16T12:07:43.531Z,19
2016-05-16T12:08:43.581Z,18.97
2016-05-16T12:09:43.615Z,19.12
2016-05-16T12:10:43.664Z,19.1
2016-05-16T12:11:43.699Z,19.13
2016-05-16T12:12:43.732Z,19.12
2016-05-16T12:13:43.766Z,19.12
2016-05-16T12:14:43.800Z,19.17
2016-05-16T12:15:43.835Z,19.17
2016-05-16T12:16:43.884Z,19.17
2016-05-16T12:17:43.918Z,19.16
2016-05-16T12:18:43.951Z,19.23
2016-05-16T12:19:43.985Z,19.19
2016-05-16T12:20:43.878Z,19.24
2016-05-16T12:21:44.068Z,19.24
2016-05-16T12:22:44.104Z,19.24
2016-05-16T12:23:44.137Z,19.31
2016-05-16T12:24:44.187Z,19.3
2016-05-16T12:25:44.220Z,19.25
2016-05-16T12:26:44.254Z,19.32
2016-05-16T12:27:44.304Z,19.35
2016-05-16T12:28:44.337Z,19.37
2016-05-16T12:29:44.372Z,19.37
2016-05-16T12:30:44.406Z,19.4
2016-05-16T12:31:44.440Z,19.4
2016-05-16T12:32:44.489Z,19.46
2016-05-16T12:33:44.383Z,19.46
2016-05-16T12:34:44.400Z,19.5
2016-05-16T12:35:44.935Z,19.53
2016-05-16T12:36:44.640Z,19.52
2016-05-16T12:37:44.675Z,19.6
2016-05-16T12:38:44.709Z,19.55
2016-05-16T12:39:44.742Z,19.6
2016-05-16T12:40:44.792Z,19.5
2016-05-16T12:41:44.810Z,19.49
2016-05-16T12:42:44.704Z,19.55
2016-05-16T12:43:44.893Z,19.52
2016-05-16T12:44:44.927Z,19.45
2016-05-16T12:45:44.977Z,19.42
2016-05-16T12:46:45.011Z,19.45
2016-05-16T12:47:45.045Z,19.53
2016-05-16T12:48:45.095Z,19.53
2016-05-16T12:49:44.973Z,19.49
2016-05-16T12:50:45.162Z,19.43
2016-05-16T12:51:45.197Z,19.5
2016-05-16T12:52:45.230Z,19.56
2016-05-16T12:53:45.280Z,19.5
2016-05-16T12:54:45.315Z,19.52
2016-05-16T12:55:45.348Z,19.55
2016-05-16T12:56:45.381Z,19.63